createdAt,value
2019-02-14T00:00:41.767Z,11.20
2019-02-14T00:03:22.328Z,11.37
2019-02-14T00:06:04.749Z,13.53
2019-02-14T00:08:45.454Z,11.67
2019-02-14T00:11:26.081Z,12.30
2019-02-14T00:14:06.765Z,11.43
2019-02-14T00:16:47.313Z,12.90
2019-02-14T00:19:28.440Z,11.93
2019-02-14T00:22:09.138Z,14.63
2019-02-14T00:24:49.714Z,13.87
2019-02-14T00:27:30.304Z,12.27
2019-02-14T00:30:11.272Z,12.23
2019-02-14T00:32:52.040Z,11.60
2019-02-14T00:35:33.056Z,12.33
2019-02-14T00:38:13.925Z,12.97
2019-02-14T00:40:54.735Z,11.70
2019-02-14T00:43:35.493Z,12.63
2019-02-14T00:46:16.279Z,12.00
2019-02-14T00:48:57.030Z,13.80
2019-02-14T00:51:37.997Z,12.47
2019-02-14T00:54:18.742Z,12.13
2019-02-14T00:56:59.457Z,10.57
2019-02-14T00:59:40.254Z,12.60
2019-02-14T01:02:21.242Z,12.27
2019-02-14T01:05:03.624Z,10.10
2019-02-14T01:07:43.940Z,12.80
2019-02-14T01:10:24.477Z,12.30
2019-02-14T01:13:05.330Z,12.23
2019-02-14T01:15:46.215Z,11.70
2019-02-14T01:18:26.993Z,10.90
2019-02-14T01:21:07.765Z,10.80
2019-02-14T01:23:48.574Z,11.77
2019-02-14T01:26:29.438Z,10.93
2019-02-14T01:29:10.479Z,11.20
2019-02-14T01:31:51.141Z,10.10
2019-02-14T01:34:32.130Z,11.13
2019-02-14T01:37:12.777Z,10.67
2019-02-14T01:39:53.765Z,11.13
2019-02-14T01:42:34.197Z,9.63
2019-02-14T01:45:15.062Z,10.40
2019-02-14T01:47:55.718Z,11.57
2019-02-14T01:50:36.749Z,9.50
2019-02-14T01:53:17.677Z,10.40
2019-02-14T01:55:58.061Z,9.73
2019-02-14T01:58:39.109Z,12.37
2019-02-14T02:01:19.938Z,9.70
2019-02-14T02:04:00.606Z,9.93
2019-02-14T02:06:41.729Z,11.83
2019-02-14T02:09:22.650Z,10.90
2019-02-14T02:12:03.268Z,10.20
2019-02-14T02:14:44.202Z,11.00
2019-02-14T02:17:24.698Z,9.43
2019-02-14T02:20:05.398Z,9.80
2019-02-14T02:22:46.186Z,10.70
2019-02-14T02:25:27.021Z,9.27
2019-02-14T02:28:07.749Z,10.53
2019-02-14T02:33:31.830Z,9.83
2019-02-14T02:36:12.929Z,9.47
2019-02-14T02:38:53.936Z,7.87
2019-02-14T02:41:34.587Z,9.27
2019-02-14T02:44:15.454Z,8.53
2019-02-14T02:46:56.258Z,10.57
2019-02-14T02:49:37.477Z,10.20
2019-02-14T02:52:17.944Z,7.93
2019-02-14T02:54:58.575Z,7.53
2019-02-14T02:57:39.340Z,8.80
2019-02-14T03:00:20.293Z,8.53
2019-02-14T03:03:01.376Z,10.60
2019-02-14T03:05:42.270Z,8.87
2019-02-14T03:08:23.140Z,8.30
2019-02-14T03:11:03.662Z,9.30
2019-02-14T03:13:44.281Z,9.33
2019-02-14T03:16:25.007Z,8.23
2019-02-14T03:19:05.673Z,8.23
2019-02-14T03:21:46.429Z,8.83
2019-02-14T03:24:27.088Z,8.40
2019-02-14T03:27:07.868Z,8.67
2019-02-14T03:29:48.856Z,9.63
2019-02-14T03:32:29.733Z,10.13
2019-02-14T03:35:10.390Z,8.47
2019-02-14T03:37:51.008Z,8.07
2019-02-14T03:40:31.991Z,9.77
2019-02-14T03:43:13.082Z,8.93
2019-02-14T03:45:53.776Z,9.57
2019-02-14T03:48:34.320Z,8.10
2019-02-14T03:51:15.189Z,8.97
2019-02-14T03:53:55.703Z,8.23
2019-02-14T03:56:36.705Z,13.00
2019-02-14T03:59:17.237Z,9.03
2019-02-14T04:01:45.723Z,8.00
2019-02-14T04:04:33.472Z,8.23
2019-02-14T04:07:21.477Z,10.20
2019-02-14T04:10:29.951Z,11.30
2019-02-14T04:13:17.699Z,10.13
2019-02-14T04:16:05.457Z,8.73
2019-02-14T04:18:53.192Z,8.97
2019-02-14T04:21:41.201Z,8.47
2019-02-14T04:24:28.952Z,8.00
2019-02-14T04:27:16.785Z,6.90
2019-02-14T04:30:25.265Z,7.37
2019-02-14T04:33:13.019Z,5.97
2019-02-14T04:36:00.769Z,6.10
2019-02-14T04:38:48.525Z,6.00
2019-02-14T04:41:36.283Z,5.07
2019-02-14T04:44:24.028Z,5.20
2019-02-14T04:47:11.789Z,5.87
2019-02-14T04:49:59.564Z,5.70
2019-02-14T04:52:47.328Z,5.70
2019-02-14T04:55:35.077Z,5.10
2019-02-14T04:58:13.844Z,5.20
2019-02-14T05:01:01.588Z,6.00
2019-02-14T05:03:49.422Z,5.60
2019-02-14T05:06:44.204Z,7.70
2019-02-14T05:09:26.652Z,6.93
2019-02-14T05:12:14.400Z,5.43
2019-02-14T05:15:02.151Z,6.37
2019-02-14T05:17:49.904Z,6.10
2019-02-14T05:20:37.657Z,5.57
2019-02-14T05:23:25.414Z,5.03
2019-02-14T05:26:13.156Z,6.17
2019-02-14T05:29:00.913Z,7.17
2019-02-14T05:31:48.659Z,6.67
2019-02-14T05:34:38.142Z,7.40
2019-02-14T05:37:25.900Z,6.60
2019-02-14T05:40:13.653Z,5.90
2019-02-14T05:43:01.417Z,6.23
2019-02-14T05:45:49.160Z,5.87
2019-02-14T05:48:36.921Z,6.30
2019-02-14T05:51:24.673Z,8.17
2019-02-14T05:54:05.340Z,6.40
2019-02-14T05:56:46.403Z,6.23
2019-02-14T05:59:27.132Z,6.30
2019-02-14T06:02:07.625Z,6.40
2019-02-14T06:04:48.581Z,6.20
2019-02-14T06:07:28.955Z,7.67
2019-02-14T06:10:09.619Z,6.17
2019-02-14T06:12:50.388Z,6.83
2019-02-14T06:15:33.010Z,8.10
2019-02-14T06:18:11.757Z,7.03
2019-02-14T06:20:59.520Z,6.63
2019-02-14T06:23:47.281Z,6.80
2019-02-14T06:26:35.041Z,6.37
2019-02-14T06:29:22.798Z,6.27
2019-02-14T06:32:10.549Z,6.57
2019-02-14T06:34:58.328Z,7.20
2019-02-14T06:37:46.080Z,5.63
2019-02-14T06:40:33.827Z,8.73
2019-02-14T06:43:21.580Z,5.07
2019-02-14T06:46:30.061Z,6.00
2019-02-14T06:49:10.652Z,5.80
2019-02-14T06:51:51.690Z,5.73
2019-02-14T06:54:32.667Z,6.83
2019-02-14T06:57:13.119Z,5.70
2019-02-14T06:59:54.027Z,6.23
2019-02-14T07:02:34.873Z,6.47
2019-02-14T07:05:15.828Z,10.17
2019-02-14T07:07:56.565Z,6.73
2019-02-14T07:10:37.336Z,7.97
2019-02-14T07:13:18.100Z,6.43
2019-02-14T07:15:58.756Z,6.43
2019-02-14T07:18:39.484Z,5.47
2019-02-14T07:21:21.742Z,5.30
2019-02-14T07:24:00.658Z,6.73
2019-02-14T07:26:48.407Z,6.10
2019-02-14T07:29:36.156Z,6.43
2019-02-14T07:32:23.996Z,6.47
2019-02-14T07:35:11.804Z,6.10
2019-02-14T07:37:59.556Z,7.67
2019-02-14T07:40:47.300Z,9.50
2019-02-14T07:43:28.384Z,8.50
2019-02-14T07:46:09.175Z,8.17
2019-02-14T07:48:49.811Z,8.97
2019-02-14T07:51:30.256Z,8.40
2019-02-14T07:54:10.808Z,7.97
2019-02-14T07:56:52.538Z,7.67
2019-02-14T07:59:33.544Z,6.30
2019-02-14T08:02:14.411Z,8.23
2019-02-14T08:04:55.026Z,7.90
2019-02-14T08:07:36.305Z,7.30
2019-02-14T08:10:17.244Z,8.33
2019-02-14T08:12:57.976Z,10.27
2019-02-14T08:15:38.572Z,8.07
2019-02-14T08:18:19.794Z,8.70
2019-02-14T08:21:00.204Z,7.33
2019-02-14T08:23:40.580Z,7.67
2019-02-14T08:26:21.000Z,8.37
2019-02-14T08:29:01.609Z,7.67
2019-02-14T08:31:42.576Z,8.50
2019-02-14T08:34:23.859Z,10.03
2019-02-14T08:37:04.618Z,7.40
2019-02-14T08:39:45.365Z,7.47
2019-02-14T08:42:25.920Z,8.30
2019-02-14T08:45:06.592Z,7.17
2019-02-14T08:47:47.128Z,6.60
2019-02-14T08:50:28.992Z,7.03
2019-02-14T08:53:09.992Z,7.90
2019-02-14T08:55:50.784Z,7.47
2019-02-14T08:58:31.324Z,8.00
2019-02-14T09:01:12.273Z,9.03
2019-02-14T09:03:52.656Z,6.80
2019-02-14T09:06:33.233Z,6.67
2019-02-14T09:09:14.129Z,6.00
2019-02-14T09:11:54.973Z,6.63
2019-02-14T09:14:35.901Z,6.40
2019-02-14T09:17:16.801Z,8.40
2019-02-14T09:19:57.631Z,10.33
2019-02-14T09:22:38.196Z,9.60
2019-02-14T09:25:19.000Z,6.97
2019-02-14T09:27:59.415Z,9.10
2019-02-14T09:30:40.140Z,12.10
2019-02-14T09:33:21.200Z,8.70
2019-02-14T09:36:02.589Z,10.03
2019-02-14T09:38:43.336Z,6.77
2019-02-14T09:41:24.102Z,10.17
2019-02-14T09:44:04.699Z,12.17
2019-02-14T09:46:46.329Z,14.20
2019-02-14T09:49:27.112Z,9.57
2019-02-14T09:52:07.697Z,12.37
2019-02-14T09:54:48.678Z,14.60
2019-02-14T09:57:29.370Z,13.73
2019-02-14T10:00:09.806Z,10.30
2019-02-14T10:02:50.552Z,12.23
2019-02-14T10:05:31.409Z,8.07
2019-02-14T10:08:13.262Z,9.03
2019-02-14T10:10:54.053Z,10.60
2019-02-14T10:13:34.805Z,9.07
2019-02-14T10:16:15.326Z,10.13
2019-02-14T10:18:56.084Z,11.33
2019-02-14T10:21:34.824Z,10.83
2019-02-14T10:24:22.625Z,8.73
2019-02-14T10:27:10.370Z,8.00
2019-02-14T10:29:58.129Z,8.67
2019-02-14T10:32:45.864Z,9.67
2019-02-14T10:35:33.624Z,10.00
2019-02-14T10:38:22.684Z,10.67
2019-02-14T10:41:10.860Z,12.37
2019-02-14T10:43:58.601Z,8.90
2019-02-14T10:46:39.363Z,9.50
2019-02-14T10:49:20.278Z,11.53
2019-02-14T10:52:01.289Z,9.07
2019-02-14T10:54:41.816Z,8.10
2019-02-14T10:57:22.535Z,7.80
2019-02-14T11:00:04.042Z,9.60
2019-02-14T11:02:44.916Z,15.43
2019-02-14T11:05:25.847Z,9.10
2019-02-14T11:08:06.510Z,11.90
2019-02-14T11:10:47.345Z,8.60
2019-02-14T11:13:28.344Z,5.77
2019-02-14T11:16:09.793Z,4.20
2019-02-14T11:18:51.037Z,6.67
2019-02-14T11:21:31.861Z,5.03
2019-02-14T11:24:12.942Z,6.73
2019-02-14T11:26:53.916Z,5.63
2019-02-14T11:29:35.007Z,5.40
2019-02-14T11:32:15.492Z,4.53
2019-02-14T11:34:56.200Z,4.27
2019-02-14T11:37:37.061Z,2.80
2019-02-14T11:40:17.876Z,3.37
2019-02-14T11:42:58.014Z,5.83
2019-02-14T11:45:38.493Z,7.30
2019-02-14T11:48:18.924Z,5.17
2019-02-14T11:50:59.684Z,5.60
2019-02-14T11:53:40.073Z,8.23
2019-02-14T11:56:20.922Z,4.60
2019-02-14T11:59:01.276Z,7.03
2019-02-14T12:01:41.976Z,5.20
2019-02-14T12:04:22.425Z,5.17
2019-02-14T12:07:03.313Z,12.23
2019-02-14T12:09:43.613Z,5.47
2019-02-14T12:12:25.797Z,6.93
2019-02-14T12:15:06.597Z,7.80
2019-02-14T12:17:47.499Z,2.77
2019-02-14T12:20:26.756Z,5.90
2019-02-14T12:23:14.607Z,5.10
2019-02-14T12:26:02.401Z,7.03
2019-02-14T12:28:50.149Z,5.10
2019-02-14T12:31:37.893Z,4.43
2019-02-14T12:34:25.655Z,5.23
2019-02-14T12:37:13.396Z,4.77
2019-02-14T12:40:01.158Z,6.93
2019-02-14T12:42:48.960Z,6.13
2019-02-14T12:45:29.463Z,7.07
2019-02-14T12:48:10.018Z,5.40
2019-02-14T12:50:50.852Z,5.03
2019-02-14T12:53:31.728Z,10.07
2019-02-14T12:56:12.609Z,9.37
2019-02-14T12:58:53.416Z,8.33
2019-02-14T13:01:34.395Z,10.00
2019-02-14T13:04:15.261Z,7.33
2019-02-14T13:06:56.018Z,6.73
2019-02-14T13:09:36.977Z,8.57
2019-02-14T13:12:17.520Z,7.83
2019-02-14T13:14:58.192Z,9.67
2019-02-14T13:17:38.920Z,7.17
2019-02-14T13:20:19.805Z,5.47
2019-02-14T13:23:00.636Z,6.33
2019-02-14T13:25:41.216Z,6.87
2019-02-14T13:28:21.752Z,10.47
2019-02-14T13:31:02.267Z,8.83
2019-02-14T13:33:42.856Z,11.40
2019-02-14T13:36:23.512Z,16.67
2019-02-14T13:39:04.861Z,11.47
2019-02-14T13:41:45.680Z,12.77
2019-02-14T13:44:26.024Z,11.73
2019-02-14T13:47:04.727Z,12.27
2019-02-14T13:49:52.481Z,9.17
2019-02-14T13:52:40.226Z,10.53
2019-02-14T13:55:28.438Z,13.43
2019-02-14T13:58:17.458Z,13.77
2019-02-14T14:01:05.290Z,10.27
2019-02-14T14:03:53.030Z,13.63
2019-02-14T14:06:40.797Z,12.77
2019-02-14T14:09:28.628Z,12.03
2019-02-14T14:12:16.371Z,12.30
2019-02-14T14:15:24.852Z,10.83
2019-02-14T14:18:12.598Z,8.47
2019-02-14T14:21:00.352Z,7.63
2019-02-14T14:23:48.112Z,11.90
2019-02-14T14:26:35.865Z,12.63
2019-02-14T14:29:23.617Z,10.93
2019-02-14T14:32:11.368Z,10.53
2019-02-14T14:34:59.121Z,7.83
2019-02-14T14:37:46.876Z,10.47
2019-02-14T14:40:27.607Z,8.97
2019-02-14T14:43:27.474Z,10.90
2019-02-14T14:46:12.308Z,10.20
2019-02-14T14:48:52.956Z,11.43
2019-02-14T14:51:33.752Z,7.83
2019-02-14T14:54:14.281Z,11.47
2019-02-14T14:56:54.932Z,7.70
2019-02-14T14:59:35.628Z,12.23
2019-02-14T15:02:16.477Z,8.77
2019-02-14T15:04:57.237Z,8.43
2019-02-14T15:07:37.705Z,6.60
2019-02-14T15:10:18.793Z,9.27
2019-02-14T15:12:59.479Z,6.70
2019-02-14T15:15:40.466Z,7.93
2019-02-14T15:18:21.247Z,8.10
2019-02-14T15:21:02.197Z,5.57
2019-02-14T15:23:42.989Z,4.20
2019-02-14T15:26:23.565Z,5.17
2019-02-14T15:29:04.660Z,6.13
2019-02-14T15:31:45.567Z,9.73
2019-02-14T15:34:26.639Z,6.17
2019-02-14T15:37:07.395Z,8.53
2019-02-14T15:39:47.985Z,7.20
2019-02-14T15:42:28.584Z,9.70
2019-02-14T15:45:09.414Z,9.10
2019-02-14T15:47:37.812Z,8.30
2019-02-14T15:50:25.574Z,11.33
2019-02-14T15:53:13.319Z,7.97
2019-02-14T15:56:01.071Z,11.67
2019-02-14T15:58:48.816Z,10.33
2019-02-14T16:01:36.574Z,11.87
2019-02-14T16:04:24.325Z,9.53
2019-02-14T16:07:13.302Z,8.17
2019-02-14T16:10:03.763Z,9.43
2019-02-14T16:12:51.034Z,8.13
2019-02-14T16:15:38.799Z,8.33
2019-02-14T16:21:20.589Z,9.17
2019-02-14T16:24:08.333Z,10.77
2019-02-14T16:26:56.096Z,12.23
2019-02-14T16:29:43.839Z,9.73
2019-02-14T16:32:31.619Z,9.77
2019-02-14T16:35:19.365Z,12.40
2019-02-14T16:37:59.781Z,11.67
2019-02-14T16:40:40.689Z,11.80
2019-02-14T16:43:21.571Z,13.80
2019-02-14T16:46:02.372Z,13.50
2019-02-14T16:48:43.151Z,11.53
2019-02-14T16:51:23.988Z,13.60
2019-02-14T16:54:05.022Z,12.43
2019-02-14T16:56:45.831Z,13.93
2019-02-14T16:59:26.768Z,12.27
2019-02-14T17:02:07.548Z,18.90
2019-02-14T17:04:48.107Z,11.90
2019-02-14T17:07:28.957Z,14.87
2019-02-14T17:10:09.912Z,13.20
2019-02-14T17:12:50.676Z,14.23
2019-02-14T17:15:31.717Z,11.47
2019-02-14T17:18:12.660Z,17.60
2019-02-14T17:20:53.526Z,15.40
2019-02-14T17:23:21.948Z,16.27
2019-02-14T17:26:09.688Z,12.70
2019-02-14T17:28:57.459Z,16.37
2019-02-14T17:31:45.276Z,17.17
2019-02-14T17:34:25.628Z,15.47
2019-02-14T17:37:06.260Z,15.63
2019-02-14T17:39:47.253Z,16.10
2019-02-14T17:42:28.204Z,14.53
2019-02-14T17:45:08.870Z,17.10
2019-02-14T17:47:49.533Z,18.47
2019-02-14T17:50:30.107Z,16.07
2019-02-14T17:53:11.092Z,16.67
2019-02-14T17:55:51.973Z,15.50
2019-02-14T17:58:32.875Z,18.10
2019-02-14T18:01:13.511Z,17.90
2019-02-14T18:03:54.432Z,23.57
2019-02-14T18:06:35.035Z,27.03
2019-02-14T18:09:16.004Z,18.73
2019-02-14T18:11:56.665Z,19.23
2019-02-14T18:14:37.172Z,20.90
2019-02-14T18:17:18.107Z,16.30
2019-02-14T18:19:58.709Z,20.87
2019-02-14T18:22:39.509Z,18.00
2019-02-14T18:25:20.312Z,17.60
2019-02-14T18:28:00.588Z,17.40
2019-02-14T18:30:41.692Z,21.30
2019-02-14T18:33:22.552Z,25.87
2019-02-14T18:36:03.320Z,24.43
2019-02-14T18:38:44.273Z,21.40
2019-02-14T18:41:25.420Z,17.93
2019-02-14T18:44:06.467Z,25.00
2019-02-14T18:46:47.211Z,21.47
2019-02-14T18:49:28.304Z,17.77
2019-02-14T18:52:09.089Z,22.80
2019-02-14T18:54:49.729Z,23.50
2019-02-14T18:57:30.684Z,33.70
2019-02-14T19:00:11.546Z,29.83
2019-02-14T19:02:52.079Z,28.97
2019-02-14T19:05:33.116Z,28.20
2019-02-14T19:08:13.692Z,29.80
2019-02-14T19:10:54.576Z,26.37
2019-02-14T19:13:35.340Z,24.23
2019-02-14T19:16:15.887Z,22.20
2019-02-14T19:18:58.700Z,20.93
2019-02-14T19:21:39.830Z,19.40
2019-02-14T19:24:20.616Z,24.73
2019-02-14T19:27:01.384Z,22.27
2019-02-14T19:29:42.449Z,24.13
2019-02-14T19:32:23.338Z,20.63
2019-02-14T19:35:04.126Z,21.07
2019-02-14T19:37:44.488Z,20.30
2019-02-14T19:40:25.081Z,24.13
2019-02-14T19:43:05.814Z,20.13
2019-02-14T19:45:46.748Z,22.13
2019-02-14T19:48:27.255Z,22.27
2019-02-14T19:51:08.069Z,22.63
2019-02-14T19:53:48.914Z,20.53
2019-02-14T19:56:29.617Z,23.20
2019-02-14T19:59:10.535Z,21.77
2019-02-14T20:01:51.376Z,24.27
2019-02-14T20:04:32.450Z,28.23
2019-02-14T20:07:13.006Z,21.70
2019-02-14T20:09:55.593Z,24.07
2019-02-14T20:12:35.864Z,22.87
2019-02-14T20:15:16.506Z,26.73
2019-02-14T20:17:57.391Z,22.83
2019-02-14T20:20:38.116Z,23.57
2019-02-14T20:23:18.972Z,22.87
2019-02-14T20:25:59.949Z,17.70
2019-02-14T20:28:40.654Z,22.70
2019-02-14T20:31:21.520Z,18.63
2019-02-14T20:34:02.238Z,22.47
2019-02-14T20:36:43.135Z,17.73
2019-02-14T20:39:24.144Z,16.77
2019-02-14T20:42:04.981Z,23.10
2019-02-14T20:44:45.814Z,20.50
2019-02-14T20:47:26.592Z,16.73
2019-02-14T20:50:07.386Z,21.77
2019-02-14T20:52:48.269Z,17.90
2019-02-14T20:55:29.068Z,15.30
2019-02-14T20:58:09.804Z,20.07
2019-02-14T21:00:50.781Z,18.47
2019-02-14T21:03:31.668Z,19.83
2019-02-14T21:06:12.872Z,15.93
2019-02-14T21:08:53.684Z,18.50
2019-02-14T21:11:34.706Z,17.40
2019-02-14T21:14:15.326Z,15.97
2019-02-14T21:16:56.011Z,14.83
2019-02-14T21:19:37.043Z,16.10
2019-02-14T21:22:18.808Z,14.20
2019-02-14T21:24:59.957Z,11.90
2019-02-14T21:27:40.490Z,12.90
2019-02-14T21:30:21.467Z,11.33
2019-02-14T21:33:02.372Z,14.77
2019-02-14T21:35:43.083Z,11.20
2019-02-14T21:38:23.939Z,8.07
2019-02-14T21:41:04.623Z,8.80
2019-02-14T21:43:45.252Z,10.37
2019-02-14T21:46:26.178Z,8.13
2019-02-14T21:49:06.941Z,8.23
2019-02-14T21:51:47.772Z,8.93
2019-02-14T21:54:28.711Z,10.03
2019-02-14T21:57:09.391Z,8.93
2019-02-14T21:59:50.240Z,7.80
2019-02-14T22:02:30.689Z,9.67
2019-02-14T22:05:11.210Z,7.70
2019-02-14T22:07:51.862Z,9.50
2019-02-14T22:10:32.881Z,9.63
2019-02-14T22:13:13.607Z,7.77
2019-02-14T22:15:54.526Z,9.10
2019-02-14T22:18:35.179Z,8.20
2019-02-14T22:21:15.872Z,9.33
2019-02-14T22:23:56.580Z,10.57
2019-02-14T22:26:37.445Z,6.53
2019-02-14T22:29:18.330Z,7.40
2019-02-14T22:31:46.749Z,8.13
2019-02-14T22:34:34.508Z,9.17
2019-02-14T22:37:22.275Z,8.80
2019-02-14T22:40:10.589Z,7.80
2019-02-14T22:42:58.352Z,9.20
2019-02-14T22:45:46.129Z,12.23
2019-02-14T22:48:33.912Z,10.37
2019-02-14T22:51:14.501Z,8.97
2019-02-14T22:53:55.419Z,6.60
2019-02-14T22:56:36.032Z,9.50
2019-02-14T22:59:16.636Z,8.50
2019-02-14T23:01:57.371Z,9.07
2019-02-14T23:04:38.249Z,9.00
2019-02-14T23:07:19.136Z,8.33
2019-02-14T23:09:59.925Z,9.33
2019-02-14T23:12:40.696Z,7.67
2019-02-14T23:15:21.334Z,8.27
2019-02-14T23:18:02.099Z,10.33
2019-02-14T23:20:42.928Z,8.43
2019-02-14T23:23:23.722Z,9.00
2019-02-14T23:26:05.689Z,10.70
2019-02-14T23:28:45.870Z,9.93
2019-02-14T23:31:26.522Z,9.20
2019-02-14T23:34:07.306Z,8.53
2019-02-14T23:36:48.211Z,7.53
2019-02-14T23:39:32.468Z,8.07
2019-02-14T23:42:13.622Z,7.17
2019-02-14T23:44:54.349Z,7.83
2019-02-14T23:47:35.450Z,7.73
2019-02-14T23:50:16.415Z,9.20
2019-02-14T23:52:57.378Z,8.20
2019-02-14T23:55:38.250Z,6.97
